createdAt,value
2023-03-25T00:00:53.370Z,8.60
2023-03-25T00:06:21.757Z,8.60
2023-03-25T00:11:53.094Z,8.60
2023-03-25T00:17:23.134Z,8.50
2023-03-25T00:22:51.457Z,8.50
2023-03-25T00:28:19.361Z,8.50
2023-03-25T00:33:47.129Z,8.40
2023-03-25T00:39:14.983Z,8.40
2023-03-25T00:44:43.143Z,8.30
2023-03-25T00:50:14.925Z,8.30
2023-03-25T00:55:43.718Z,8.30
2023-03-25T01:01:23.544Z,8.30
2023-03-25T01:06:52.173Z,8.40
2023-03-25T01:12:20.331Z,8.40
2023-03-25T01:17:48.234Z,8.50
2023-03-25T01:23:17.429Z,8.70
2023-03-25T01:28:46.084Z,8.90
2023-03-25T01:34:15.502Z,9.10
2023-03-25T01:39:43.420Z,9.10
2023-03-25T01:45:32.875Z,9.10
2023-03-25T01:51:10.441Z,9.20
2023-03-25T01:56:42.368Z,9.20
2023-03-25T02:02:17.820Z,9.20
2023-03-25T02:07:51.429Z,9.20
2023-03-25T02:13:21.009Z,9.30
2023-03-25T02:19:33.165Z,9.30
2023-03-25T02:25:55.079Z,9.30
2023-03-25T02:31:49.060Z,9.30
2023-03-25T02:37:47.149Z,9.20
2023-03-25T02:43:33.732Z,9.20
2023-03-25T02:49:09.699Z,9.00
2023-03-25T02:54:43.764Z,8.90
2023-03-25T03:00:15.916Z,8.80
2023-03-25T03:05:50.932Z,8.80
2023-03-25T03:11:36.600Z,8.70
2023-03-25T03:17:46.294Z,8.70
2023-03-25T03:23:46.261Z,8.70
2023-03-25T03:29:21.066Z,8.60
2023-03-25T03:35:14.241Z,8.60
2023-03-25T03:40:50.750Z,8.50
2023-03-25T03:46:32.729Z,8.40
2023-03-25T03:52:14.871Z,8.30
2023-03-25T03:57:59.985Z,8.20
2023-03-25T04:03:38.859Z,8.10
2023-03-25T04:09:27.453Z,8.10
2023-03-25T04:14:56.569Z,8.00
2023-03-25T04:20:26.206Z,7.90
2023-03-25T04:25:54.163Z,7.90
2023-03-25T04:31:26.167Z,7.80
2023-03-25T04:36:57.295Z,7.80
2023-03-25T04:48:06.085Z,7.70
2023-03-25T04:53:40.162Z,7.70
2023-03-25T04:59:11.993Z,7.80
2023-03-25T05:04:47.896Z,7.90
2023-03-25T05:10:22.242Z,7.90
2023-03-25T05:15:50.641Z,7.90
2023-03-25T05:21:19.013Z,8.00
2023-03-25T05:26:46.887Z,8.00
2023-03-25T05:32:17.763Z,8.00
2023-03-25T05:37:46.663Z,8.00
2023-03-25T05:43:16.183Z,7.90
2023-03-25T05:48:46.180Z,7.90
2023-03-25T05:59:49.030Z,8.30
2023-03-25T06:05:17.578Z,8.30
2023-03-25T06:16:13.819Z,8.30
2023-03-25T06:21:44.347Z,8.30
2023-03-25T06:27:20.218Z,8.30
2023-03-25T06:32:53.802Z,8.40
2023-03-25T06:38:22.036Z,8.30
2023-03-25T06:44:06.957Z,8.30
2023-03-25T06:49:46.708Z,8.20
2023-03-25T06:55:14.787Z,8.20
2023-03-25T07:00:43.659Z,8.10
2023-03-25T07:06:21.261Z,8.00
2023-03-25T07:11:52.324Z,7.90
2023-03-25T07:17:22.804Z,7.90
2023-03-25T07:22:51.049Z,7.80
2023-03-25T07:28:19.787Z,7.80
2023-03-25T07:33:53.842Z,7.90
2023-03-25T07:39:22.812Z,5.90
2023-03-25T07:50:24.940Z,7.70
2023-03-25T07:55:53.969Z,7.80
2023-03-25T08:06:53.356Z,7.90
2023-03-25T08:12:21.468Z,7.90
2023-03-25T08:17:52.207Z,8.30
2023-03-25T08:23:22.447Z,8.30
2023-03-25T08:28:50.310Z,8.40
2023-03-25T08:34:21.247Z,8.50
2023-03-25T08:39:58.847Z,8.60
2023-03-25T08:45:26.885Z,8.70
2023-03-25T08:50:57.342Z,9.10
2023-03-25T08:56:26.180Z,8.80
2023-03-25T09:07:24.699Z,8.90
2023-03-25T09:18:23.719Z,9.00
2023-03-25T09:23:51.822Z,9.10
2023-03-25T09:29:20.886Z,9.00
2023-03-25T09:40:23.528Z,9.30
2023-03-25T09:45:52.849Z,9.60
2023-03-25T09:51:29.974Z,9.80
2023-03-25T09:57:06.492Z,10.00
2023-03-25T10:02:42.179Z,10.20
2023-03-25T10:08:49.221Z,10.40
2023-03-25T10:14:29.105Z,10.40
2023-03-25T10:20:31.142Z,10.40
2023-03-25T10:26:14.188Z,10.50
2023-03-25T10:31:53.159Z,10.60
2023-03-25T10:37:32.708Z,10.70
2023-03-25T10:43:19.276Z,10.70
2023-03-25T10:48:48.688Z,10.60
2023-03-25T10:54:18.071Z,10.70
2023-03-25T11:00:20.941Z,10.50
2023-03-25T11:05:49.537Z,10.50
2023-03-25T11:11:19.272Z,10.60
2023-03-25T11:16:57.260Z,10.70
2023-03-25T11:22:32.178Z,11.00
2023-03-25T11:28:06.196Z,11.10
2023-03-25T11:33:34.362Z,10.90
2023-03-25T11:39:17.609Z,10.90
2023-03-25T11:44:55.565Z,11.00
2023-03-25T11:50:29.546Z,11.00
2023-03-25T11:56:11.711Z,11.10
2023-03-25T12:01:50.654Z,11.20
2023-03-25T12:07:21.688Z,11.00
2023-03-25T12:13:17.356Z,11.00
2023-03-25T12:19:22.464Z,11.20
2023-03-25T12:25:18.226Z,11.20
2023-03-25T12:31:11.520Z,11.20
2023-03-25T12:36:55.362Z,11.20
2023-03-25T12:42:30.554Z,11.10
2023-03-25T12:48:28.665Z,11.10
2023-03-25T12:54:34.837Z,11.10
2023-03-25T13:00:36.418Z,11.30
2023-03-25T13:06:30.530Z,11.60
2023-03-25T13:12:07.370Z,11.70
2023-03-25T13:17:46.495Z,11.80
2023-03-25T13:23:21.627Z,12.10
2023-03-25T13:28:58.296Z,11.80
2023-03-25T13:34:44.008Z,11.90
2023-03-25T13:40:22.505Z,12.40
2023-03-25T13:46:09.682Z,12.30
2023-03-25T13:51:37.845Z,12.50
2023-03-25T13:57:35.350Z,12.70
2023-03-25T14:03:24.350Z,12.80
2023-03-25T14:09:38.342Z,13.30
2023-03-25T14:15:20.999Z,13.60
2023-03-25T14:20:50.602Z,15.60
2023-03-25T14:26:20.011Z,14.90
2023-03-25T14:32:26.897Z,16.00
2023-03-25T14:37:54.810Z,17.60
2023-03-25T14:43:53.313Z,18.30
2023-03-25T14:49:23.271Z,18.50
2023-03-25T14:54:56.746Z,18.20
2023-03-25T15:00:31.563Z,17.10
2023-03-25T15:06:01.170Z,18.60
2023-03-25T15:11:39.366Z,19.30
2023-03-25T15:17:34.613Z,18.30
2023-03-25T15:23:33.142Z,15.20
2023-03-25T15:29:55.778Z,14.40
2023-03-25T15:35:52.669Z,14.10
2023-03-25T15:41:23.233Z,12.70
2023-03-25T15:47:48.311Z,12.20
2023-03-25T15:53:53.572Z,12.60
2023-03-25T15:59:45.112Z,12.30
2023-03-25T16:05:16.456Z,11.60
2023-03-25T16:10:46.453Z,11.40
2023-03-25T16:16:17.661Z,13.90
2023-03-25T16:21:49.842Z,15.30
2023-03-25T16:27:31.961Z,15.10
2023-03-25T16:33:10.481Z,13.20
2023-03-25T16:38:38.443Z,12.10
2023-03-25T16:44:07.235Z,11.50
2023-03-25T16:49:37.474Z,11.20
2023-03-25T16:55:14.761Z,10.90
2023-03-25T17:00:43.659Z,10.80
2023-03-25T17:06:35.302Z,10.70
2023-03-25T17:12:10.127Z,10.70
2023-03-25T17:18:00.046Z,10.70
2023-03-25T17:23:46.446Z,10.50
2023-03-25T17:29:16.015Z,10.30
2023-03-25T17:34:45.627Z,9.80
2023-03-25T17:40:25.969Z,9.90
2023-03-25T17:45:53.956Z,9.70
2023-03-25T17:51:22.480Z,9.60
2023-03-25T17:56:50.641Z,9.40
2023-03-25T18:02:21.429Z,9.20
2023-03-25T18:07:51.805Z,9.10
2023-03-25T18:13:22.680Z,9.00
2023-03-25T18:18:53.740Z,8.90
2023-03-25T18:24:28.971Z,8.80
2023-03-25T18:29:59.549Z,8.80
2023-03-25T18:35:27.539Z,8.70
2023-03-25T18:40:57.332Z,8.70
2023-03-25T18:46:26.861Z,8.60
2023-03-25T18:51:59.295Z,8.60
2023-03-25T18:57:27.381Z,8.60
2023-03-25T19:02:56.782Z,8.50
2023-03-25T19:08:26.590Z,8.40
2023-03-25T19:13:56.150Z,8.30
2023-03-25T19:19:33.286Z,8.30
2023-03-25T19:25:02.289Z,8.20
2023-03-25T19:30:31.814Z,8.10
2023-03-25T19:36:04.319Z,8.00
2023-03-25T19:41:35.298Z,8.00
2023-03-25T19:47:04.028Z,8.00
2023-03-25T19:52:33.916Z,8.00
2023-03-25T19:58:02.815Z,7.90
2023-03-25T20:03:33.009Z,6.40
2023-03-25T20:14:29.462Z,7.80
2023-03-25T20:19:57.892Z,7.80
2023-03-25T20:25:25.948Z,7.70
2023-03-25T20:30:55.523Z,7.70
2023-03-25T20:36:23.476Z,7.60
2023-03-25T20:41:52.023Z,7.60
2023-03-25T20:47:20.033Z,7.60
2023-03-25T20:52:49.051Z,7.60
2023-03-25T20:58:18.217Z,7.60
2023-03-25T21:03:51.930Z,7.60
2023-03-25T21:09:20.123Z,7.50
2023-03-25T21:14:48.487Z,7.50
2023-03-25T21:20:16.899Z,7.50
2023-03-25T21:26:00.899Z,7.50
2023-03-25T21:31:38.537Z,7.40
2023-03-25T21:37:08.590Z,7.50
2023-03-25T21:42:46.729Z,7.40
2023-03-25T21:48:23.769Z,7.40
2023-03-25T21:53:54.602Z,7.40
2023-03-25T21:59:29.027Z,7.40
2023-03-25T22:05:02.239Z,7.40
2023-03-25T22:10:33.821Z,7.30
2023-03-25T22:16:02.506Z,7.30
2023-03-25T22:21:37.787Z,7.30
2023-03-25T22:27:10.236Z,7.20
2023-03-25T22:32:41.337Z,7.20
2023-03-25T22:38:16.909Z,7.20
2023-03-25T22:43:49.409Z,7.20
2023-03-25T22:49:22.914Z,7.20
2023-03-25T22:54:53.934Z,7.20
2023-03-25T23:00:33.167Z,7.20
2023-03-25T23:06:08.286Z,7.20
2023-03-25T23:11:52.011Z,7.20
2023-03-25T23:17:31.295Z,7.30
2023-03-25T23:23:06.602Z,7.30
2023-03-25T23:28:39.629Z,7.30
2023-03-25T23:34:18.902Z,7.30
2023-03-25T23:39:46.721Z,7.30
2023-03-25T23:45:15.803Z,7.30
2023-03-25T23:50:47.312Z,7.40
2023-03-25T23:56:20.048Z,7.40
